Vg 117 Kungsvik — SBTH — position and weather

sailwx.info

Track history (hours):
 
Tides and Currents Weather Stations Pressure Air Temp Water Temp Dewpoint Dewpoint Depression Visibility Wind Speed Wind Dir Waves Ship Positions

Vg 117 Kungsvik

Last reported at 2016-May-27 05:33 UTC. Time now 2016-May-31 09:51 UTC.
Position N 57°04' E 012°16'.

Length 17 m; draft 3.7 m.

Type: Fishing. MMSI: 266137000.

Date/timePositionNaut miles runAvg speedWind from/ knotsBaromVisibWave heightAir tempDewpointWater temp
2016-May-27 05:33N 57°04' E 012°16'5 4.5
2016-May-27 04:33N 57°00' E 012°10'1 1.5
2016-May-27 03:33N 57°01' E 012°08'2 1.6
2016-May-27 02:33N 57°01' E 012°11'2 2.2
2016-May-27 01:33N 56°58' E 012°12'2 2.3
2016-May-27 00:33N 57°01' E 012°14'1 1.3
2016-May-26 23:33N 56°60' E 012°12'1 0.5
2016-May-26 21:18N 56°59' E 012°12'2 2.0
2016-May-26 20:33N 56°60' E 012°14'2 2.3
2016-May-26 19:33N 57°01' E 012°10'2 1.8
2016-May-26 18:32N 57°03' E 012°10'2 0.2
2016-May-26 05:31N 57°03' E 012°15'6 6.6
2016-May-26 04:34N 57°04' E 012°03'1 1.5
2016-May-26 03:33N 57°05' E 012°02'2 1.9
2016-May-26 02:22N 57°05' E 012°06'2 2.6
2016-May-26 01:33N 57°04' E 012°09'3 2.6
2016-May-26 00:33N 57°02' E 012°12'2 1.8
2016-May-25 23:33N 57°01' E 012°14'2 2.1
2016-May-25 22:33N 57°02' E 012°11'2 2.4
2016-May-25 21:33N 57°04' E 012°09'1 0.3
2016-May-25 18:33N 57°03' E 012°10'4 3.3
2016-May-25 17:28N 57°04' E 012°16'0 0.0
2016-May-25 16:28N 57°04' E 012°16'0 0.0
2016-May-25 15:28N 57°04' E 012°16'0 0.0
2016-May-25 14:28N 57°04' E 012°16'0 0.0
2016-May-25 13:22N 57°04' E 012°16'0 0.0
2016-May-25 12:28N 57°04' E 012°16'0 0.0
2016-May-25 11:28N 57°04' E 012°16'0 0.0
2016-May-25 10:28N 57°04' E 012°16'0 0.0
2016-May-25 09:28N 57°04' E 012°16'0 0.0
2016-May-25 08:28N 57°04' E 012°16'0 0.0
2016-May-25 07:28N 57°04' E 012°16'0 0.0
2016-May-25 06:28N 57°04' E 012°16'2 1.8
2016-May-25 05:33N 57°03' E 012°14'5 4.5
2016-May-25 04:31N 57°04' E 012°05'2 1.9
2016-May-25 03:33N 57°06' E 012°03'2 2.1
2016-May-25 02:32N 57°05' E 012°07'2 2.5
2016-May-25 01:33N 57°03' E 012°10'3 2.6
2016-May-25 00:33N 57°01' E 012°13'1 1.2
2016-May-24 23:33N 57°00' E 012°14'2 2.3
2016-May-24 22:33N 57°02' E 012°12'2 2.4
2016-May-24 21:33N 57°04' E 012°10'4 1.7
2016-May-24 19:32N 57°05' E 012°03'3 3.3
2016-May-24 18:32N 57°04' E 012°09'2 0.2
2016-May-24 05:33N 57°03' E 012°12'4 4.1
2016-May-24 04:32N 57°04' E 012°05'1 1.3
2016-May-24 03:33N 57°04' E 012°07'2 1.0
2016-May-24 01:33N 57°04' E 012°11'3 2.5
2016-May-24 00:33N 57°02' E 012°13'1 1.5
2016-May-23 23:33N 57°00' E 012°14'2 2.2
2016-May-23 22:33N 57°02' E 012°12'3 2.5
2016-May-23 21:33N 57°04' E 012°09'3 2.4
2016-May-23 20:23N 57°06' E 012°05'3 1.5
2016-May-23 18:33N 57°03' E 012°08'5 3.7
2016-May-23 17:18N 57°04' E 012°16'0 0.0
2016-May-23 16:30N 57°04' E 012°16'0 0.0
2016-May-23 15:30N 57°04' E 012°16'0 0.0
2016-May-23 14:30N 57°04' E 012°16'0 0.0
2016-May-23 13:18N 57°04' E 012°16'0 0.0
2016-May-23 12:24N 57°04' E 012°16'0 0.0
2016-May-23 11:24N 57°04' E 012°16'0 0.0
2016-May-23 10:30N 57°04' E 012°16'0 0.0
2016-May-23 09:30N 57°04' E 012°16'0 0.0
2016-May-23 08:30N 57°04' E 012°16'0 0.0
2016-May-23 07:30N 57°04' E 012°16'0 0.0
2016-May-23 06:30N 57°04' E 012°16'1 1.2
2016-May-23 05:30N 57°03' E 012°14'5 4.7
2016-May-23 04:30N 57°05' E 012°06'1 1.4
2016-May-23 03:33N 57°05' E 012°04'1 1.2
2016-May-23 02:33N 57°06' E 012°06'2 2.3
2016-May-23 01:32N 57°04' E 012°09'2 2.5
2016-May-23 00:33N 57°03' E 012°12'1 1.4
2016-May-22 23:33N 57°01' E 012°13'2 2.2
2016-May-22 22:33N 57°03' E 012°11'2 2.5
2016-May-22 21:33N 57°05' E 012°08'3 2.1
2016-May-22 20:14N 57°06' E 012°03'2 2.5
2016-May-22 19:32N 57°04' E 012°05'4 3.7
2016-May-22 18:33N 57°03' E 012°11'3 2.7
2016-May-22 17:28N 57°04' E 012°16'0 0.0
2016-May-22 16:33N 57°04' E 012°16'1 0.0
2016-May-20 19:33N 57°03' E 012°15'21 7.1
2016-May-20 16:32N 57°20' E 011°50'7 7.0
2016-May-20 15:33N 57°26' E 011°44'7 6.9
2016-May-20 14:33N 57°32' E 011°39'7 7.1
2016-May-20 13:33N 57°40' E 011°41'3 2.9
2016-May-20 12:32N 57°42' E 011°40'0 0.0
2016-May-20 11:32N 57°42' E 011°40'0 0.0
2016-May-20 10:32N 57°42' E 011°40'0 0.0
2016-May-20 09:32N 57°42' E 011°40'0 0.0
2016-May-20 08:32N 57°42' E 011°40'0 0.0
2016-May-20 07:32N 57°42' E 011°40'0 0.0
2016-May-20 06:32N 57°42' E 011°40'0 0.0
2016-May-20 05:32N 57°42' E 011°40'0 0.0
2016-May-20 04:32N 57°42' E 011°40'0 0.0
2016-May-20 03:32N 57°42' E 011°40'0 0.0
2016-May-20 02:32N 57°42' E 011°40'0 0.0
2016-May-20 01:32N 57°42' E 011°40'0 0.0
2016-May-20 00:32N 57°42' E 011°40'0 0.0
2016-May-19 23:32N 57°42' E 011°40'0 0.0
2016-May-19 22:32N 57°42' E 011°40'0 0.0
2016-May-19 21:32N 57°42' E 011°40'0 0.0
2016-May-19 20:32N 57°42' E 011°40'0 0.0
2016-May-19 19:32N 57°42' E 011°40'0 0.0
2016-May-19 18:32N 57°42' E 011°40'0 0.0
2016-May-19 17:32N 57°42' E 011°40'0 0.0
2016-May-19 16:32N 57°42' E 011°40'0 0.0
2016-May-19 15:32N 57°42' E 011°40'0 0.0
2016-May-19 14:32N 57°42' E 011°40'0 0.0
2016-May-19 13:32N 57°42' E 011°40'0 0.0
2016-May-19 12:32N 57°42' E 011°40'0 0.0
2016-May-19 11:32N 57°42' E 011°40'0 0.0
2016-May-19 10:32N 57°42' E 011°40'0 0.0
2016-May-19 09:32N 57°42' E 011°40'0 0.0
2016-May-19 08:32N 57°42' E 011°40'0 0.0
2016-May-19 07:32N 57°42' E 011°40'0 0.0
2016-May-19 06:32N 57°42' E 011°40'0 0.0
2016-May-19 05:32N 57°42' E 011°40'0 0.0
2016-May-19 04:32N 57°42' E 011°40'0 0.0
2016-May-19 03:32N 57°42' E 011°40'0 0.0
2016-May-19 02:32N 57°42' E 011°40'0 0.0
2016-May-19 01:32N 57°42' E 011°40'0 0.0
2016-May-19 00:32N 57°42' E 011°40'0 0.0
2016-May-18 23:32N 57°42' E 011°40'0 0.0
2016-May-18 22:32N 57°42' E 011°40'0 0.0
2016-May-18 21:32N 57°42' E 011°40'0 0.0
2016-May-18 20:32N 57°42' E 011°40'0 0.0
2016-May-18 19:32N 57°42' E 011°40'0 0.0
2016-May-18 18:32N 57°42' E 011°40'0 0.0
2016-May-18 17:32N 57°42' E 011°40'0 0.0
2016-May-18 16:32N 57°42' E 011°40'0 0.0
2016-May-18 15:32N 57°42' E 011°40'0 0.0
2016-May-18 14:32N 57°42' E 011°40'0 0.0
2016-May-18 13:32N 57°42' E 011°40'0 0.0
2016-May-18 12:32N 57°42' E 011°40'0 0.0
2016-May-18 11:32N 57°42' E 011°40'0 0.0
2016-May-18 10:32N 57°42' E 011°40'0 0.0
2016-May-18 09:32N 57°42' E 011°40'0 0.0
2016-May-18 08:32N 57°42' E 011°40'0 0.0
2016-May-18 07:32N 57°42' E 011°40'0 0.0
2016-May-18 06:32N 57°42' E 011°40'0 0.0
2016-May-18 05:32N 57°42' E 011°40'0 0.0
2016-May-18 04:32N 57°42' E 011°40'0 0.0
2016-May-18 03:32N 57°42' E 011°40'0 0.0
2016-May-18 02:32N 57°42' E 011°40'0 0.0
2016-May-18 01:32N 57°42' E 011°40'0 0.0
2016-May-18 00:32N 57°42' E 011°40'0 0.0
2016-May-17 23:32N 57°42' E 011°40'0 0.0
2016-May-17 22:32N 57°42' E 011°40'0 0.0
2016-May-17 21:32N 57°42' E 011°40'0 0.0
2016-May-17 20:32N 57°42' E 011°40'0 0.0
2016-May-17 19:32N 57°42' E 011°40'0 0.0
2016-May-17 18:32N 57°42' E 011°40'0 0.0
2016-May-17 17:32N 57°42' E 011°40'0 0.0
2016-May-17 16:32N 57°42' E 011°40'0 0.0
2016-May-17 15:26N 57°42' E 011°40'0 0.0
2016-May-17 14:32N 57°42' E 011°40'0 0.0
2016-May-17 13:32N 57°42' E 011°40'0 0.0
2016-May-17 12:32N 57°42' E 011°40'0 0.0
2016-May-17 11:32N 57°42' E 011°40'0 0.0
2016-May-17 10:32N 57°42' E 011°40'0 0.0
2016-May-17 09:32N 57°42' E 011°40'0 0.0
2016-May-17 08:32N 57°42' E 011°40'0 0.0
2016-May-17 07:32N 57°42' E 011°40'0 0.0
2016-May-17 06:32N 57°42' E 011°40'  
Track history (hours):
 
Tides and Currents Weather Stations Pressure Air Temp Water Temp Dewpoint Dewpoint Depression Visibility Wind Speed Wind Dir Waves Ship Positions

Vg 117 Kungsvik

Last reported at 2016-May-27 05:33 UTC. Time now 2016-May-31 09:51 UTC.
Position N 57°04' E 012°16'.

Length 17 m; draft 3.7 m.

Type: Fishing. MMSI: 266137000.

Date/timePositionNaut miles runAvg speedWind from/ knotsBaromVisibWave heightAir tempDewpointWater temp
2016-May-27 05:33N 57°04' E 012°16'5 4.5
2016-May-27 04:33N 57°00' E 012°10'1 1.5
2016-May-27 03:33N 57°01' E 012°08'2 1.6
2016-May-27 02:33N 57°01' E 012°11'2 2.2
2016-May-27 01:33N 56°58' E 012°12'2 2.3
2016-May-27 00:33N 57°01' E 012°14'1 1.3
2016-May-26 23:33N 56°60' E 012°12'1 0.5
2016-May-26 21:18N 56°59' E 012°12'2 2.0
2016-May-26 20:33N 56°60' E 012°14'2 2.3
2016-May-26 19:33N 57°01' E 012°10'2 1.8
2016-May-26 18:32N 57°03' E 012°10'2 0.2
2016-May-26 05:31N 57°03' E 012°15'6 6.6
2016-May-26 04:34N 57°04' E 012°03'1 1.5
2016-May-26 03:33N 57°05' E 012°02'2 1.9
2016-May-26 02:22N 57°05' E 012°06'2 2.6
2016-May-26 01:33N 57°04' E 012°09'3 2.6
2016-May-26 00:33N 57°02' E 012°12'2 1.8
2016-May-25 23:33N 57°01' E 012°14'2 2.1
2016-May-25 22:33N 57°02' E 012°11'2 2.4
2016-May-25 21:33N 57°04' E 012°09'1 0.3
2016-May-25 18:33N 57°03' E 012°10'4 3.3
2016-May-25 17:28N 57°04' E 012°16'0 0.0
2016-May-25 16:28N 57°04' E 012°16'0 0.0
2016-May-25 15:28N 57°04' E 012°16'0 0.0
2016-May-25 14:28N 57°04' E 012°16'0 0.0
2016-May-25 13:22N 57°04' E 012°16'0 0.0
2016-May-25 12:28N 57°04' E 012°16'0 0.0
2016-May-25 11:28N 57°04' E 012°16'0 0.0
2016-May-25 10:28N 57°04' E 012°16'0 0.0
2016-May-25 09:28N 57°04' E 012°16'0 0.0
2016-May-25 08:28N 57°04' E 012°16'0 0.0
2016-May-25 07:28N 57°04' E 012°16'0 0.0
2016-May-25 06:28N 57°04' E 012°16'2 1.8
2016-May-25 05:33N 57°03' E 012°14'5 4.5
2016-May-25 04:31N 57°04' E 012°05'2 1.9
2016-May-25 03:33N 57°06' E 012°03'2 2.1
2016-May-25 02:32N 57°05' E 012°07'2 2.5
2016-May-25 01:33N 57°03' E 012°10'3 2.6
2016-May-25 00:33N 57°01' E 012°13'1 1.2
2016-May-24 23:33N 57°00' E 012°14'2 2.3
2016-May-24 22:33N 57°02' E 012°12'2 2.4
2016-May-24 21:33N 57°04' E 012°10'4 1.7
2016-May-24 19:32N 57°05' E 012°03'3 3.3
2016-May-24 18:32N 57°04' E 012°09'2 0.2
2016-May-24 05:33N 57°03' E 012°12'4 4.1
2016-May-24 04:32N 57°04' E 012°05'1 1.3
2016-May-24 03:33N 57°04' E 012°07'2 1.0
2016-May-24 01:33N 57°04' E 012°11'3 2.5
2016-May-24 00:33N 57°02' E 012°13'1 1.5
2016-May-23 23:33N 57°00' E 012°14'2 2.2
2016-May-23 22:33N 57°02' E 012°12'3 2.5
2016-May-23 21:33N 57°04' E 012°09'3 2.4
2016-May-23 20:23N 57°06' E 012°05'3 1.5
2016-May-23 18:33N 57°03' E 012°08'5 3.7
2016-May-23 17:18N 57°04' E 012°16'0 0.0
2016-May-23 16:30N 57°04' E 012°16'0 0.0
2016-May-23 15:30N 57°04' E 012°16'0 0.0
2016-May-23 14:30N 57°04' E 012°16'0 0.0
2016-May-23 13:18N 57°04' E 012°16'0 0.0
2016-May-23 12:24N 57°04' E 012°16'0 0.0
2016-May-23 11:24N 57°04' E 012°16'0 0.0
2016-May-23 10:30N 57°04' E 012°16'0 0.0
2016-May-23 09:30N 57°04' E 012°16'0 0.0
2016-May-23 08:30N 57°04' E 012°16'0 0.0
2016-May-23 07:30N 57°04' E 012°16'0 0.0
2016-May-23 06:30N 57°04' E 012°16'1 1.2
2016-May-23 05:30N 57°03' E 012°14'5 4.7
2016-May-23 04:30N 57°05' E 012°06'1 1.4
2016-May-23 03:33N 57°05' E 012°04'1 1.2
2016-May-23 02:33N 57°06' E 012°06'2 2.3
2016-May-23 01:32N 57°04' E 012°09'2 2.5
2016-May-23 00:33N 57°03' E 012°12'1 1.4
2016-May-22 23:33N 57°01' E 012°13'2 2.2
2016-May-22 22:33N 57°03' E 012°11'2 2.5
2016-May-22 21:33N 57°05' E 012°08'3 2.1
2016-May-22 20:14N 57°06' E 012°03'2 2.5
2016-May-22 19:32N 57°04' E 012°05'4 3.7
2016-May-22 18:33N 57°03' E 012°11'3 2.7
2016-May-22 17:28N 57°04' E 012°16'0 0.0
2016-May-22 16:33N 57°04' E 012°16'1 0.0
2016-May-20 19:33N 57°03' E 012°15'21 7.1
2016-May-20 16:32N 57°20' E 011°50'7 7.0
2016-May-20 15:33N 57°26' E 011°44'7 6.9
2016-May-20 14:33N 57°32' E 011°39'7 7.1
2016-May-20 13:33N 57°40' E 011°41'3 2.9
2016-May-20 12:32N 57°42' E 011°40'0 0.0
2016-May-20 11:32N 57°42' E 011°40'0 0.0
2016-May-20 10:32N 57°42' E 011°40'0 0.0
2016-May-20 09:32N 57°42' E 011°40'0 0.0
2016-May-20 08:32N 57°42' E 011°40'0 0.0
2016-May-20 07:32N 57°42' E 011°40'0 0.0
2016-May-20 06:32N 57°42' E 011°40'0 0.0
2016-May-20 05:32N 57°42' E 011°40'0 0.0
2016-May-20 04:32N 57°42' E 011°40'0 0.0
2016-May-20 03:32N 57°42' E 011°40'0 0.0
2016-May-20 02:32N 57°42' E 011°40'0 0.0
2016-May-20 01:32N 57°42' E 011°40'0 0.0
2016-May-20 00:32N 57°42' E 011°40'0 0.0
2016-May-19 23:32N 57°42' E 011°40'0 0.0
2016-May-19 22:32N 57°42' E 011°40'0 0.0
2016-May-19 21:32N 57°42' E 011°40'0 0.0
2016-May-19 20:32N 57°42' E 011°40'0 0.0
2016-May-19 19:32N 57°42' E 011°40'0 0.0
2016-May-19 18:32N 57°42' E 011°40'0 0.0
2016-May-19 17:32N 57°42' E 011°40'0 0.0
2016-May-19 16:32N 57°42' E 011°40'0 0.0
2016-May-19 15:32N 57°42' E 011°40'0 0.0
2016-May-19 14:32N 57°42' E 011°40'0 0.0
2016-May-19 13:32N 57°42' E 011°40'0 0.0
2016-May-19 12:32N 57°42' E 011°40'0 0.0
2016-May-19 11:32N 57°42' E 011°40'0 0.0
2016-May-19 10:32N 57°42' E 011°40'0 0.0
2016-May-19 09:32N 57°42' E 011°40'0 0.0
2016-May-19 08:32N 57°42' E 011°40'0 0.0
2016-May-19 07:32N 57°42' E 011°40'0 0.0
2016-May-19 06:32N 57°42' E 011°40'0 0.0
2016-May-19 05:32N 57°42' E 011°40'0 0.0
2016-May-19 04:32N 57°42' E 011°40'0 0.0
2016-May-19 03:32N 57°42' E 011°40'0 0.0
2016-May-19 02:32N 57°42' E 011°40'0 0.0
2016-May-19 01:32N 57°42' E 011°40'0 0.0
2016-May-19 00:32N 57°42' E 011°40'0 0.0
2016-May-18 23:32N 57°42' E 011°40'0 0.0
2016-May-18 22:32N 57°42' E 011°40'0 0.0
2016-May-18 21:32N 57°42' E 011°40'0 0.0
2016-May-18 20:32N 57°42' E 011°40'0 0.0
2016-May-18 19:32N 57°42' E 011°40'0 0.0
2016-May-18 18:32N 57°42' E 011°40'0 0.0
2016-May-18 17:32N 57°42' E 011°40'0 0.0
2016-May-18 16:32N 57°42' E 011°40'0 0.0
2016-May-18 15:32N 57°42' E 011°40'0 0.0
2016-May-18 14:32N 57°42' E 011°40'0 0.0
2016-May-18 13:32N 57°42' E 011°40'0 0.0
2016-May-18 12:32N 57°42' E 011°40'0 0.0
2016-May-18 11:32N 57°42' E 011°40'0 0.0
2016-May-18 10:32N 57°42' E 011°40'0 0.0
2016-May-18 09:32N 57°42' E 011°40'0 0.0
2016-May-18 08:32N 57°42' E 011°40'0 0.0
2016-May-18 07:32N 57°42' E 011°40'0 0.0
2016-May-18 06:32N 57°42' E 011°40'0 0.0
2016-May-18 05:32N 57°42' E 011°40'0 0.0
2016-May-18 04:32N 57°42' E 011°40'0 0.0
2016-May-18 03:32N 57°42' E 011°40'0 0.0
2016-May-18 02:32N 57°42' E 011°40'0 0.0
2016-May-18 01:32N 57°42' E 011°40'0 0.0
2016-May-18 00:32N 57°42' E 011°40'0 0.0
2016-May-17 23:32N 57°42' E 011°40'0 0.0
2016-May-17 22:32N 57°42' E 011°40'0 0.0
2016-May-17 21:32N 57°42' E 011°40'0 0.0
2016-May-17 20:32N 57°42' E 011°40'0 0.0
2016-May-17 19:32N 57°42' E 011°40'0 0.0
2016-May-17 18:32N 57°42' E 011°40'0 0.0
2016-May-17 17:32N 57°42' E 011°40'0 0.0
2016-May-17 16:32N 57°42' E 011°40'0 0.0
2016-May-17 15:26N 57°42' E 011°40'0 0.0
2016-May-17 14:32N 57°42' E 011°40'0 0.0
2016-May-17 13:32N 57°42' E 011°40'0 0.0
2016-May-17 12:32N 57°42' E 011°40'0 0.0
2016-May-17 11:32N 57°42' E 011°40'0 0.0
2016-May-17 10:32N 57°42' E 011°40'0 0.0
2016-May-17 09:32N 57°42' E 011°40'0 0.0
2016-May-17 08:32N 57°42' E 011°40'0 0.0
2016-May-17 07:32N 57°42' E 011°40'0 0.0
2016-May-17 06:32N 57°42' E 011°40'  

Dump ship's entire track history